sensor_id;sensor_type;location;lat;lon;timestamp;temperature;humidity
46508;DHT22;32223;53.654;10.014;2023-05-28T00:00:10;10.70;99.90
46508;DHT22;32223;53.654;10.014;2023-05-28T00:02:36;10.70;99.90
46508;DHT22;32223;53.654;10.014;2023-05-28T00:05:03;10.70;99.90
46508;DHT22;32223;53.654;10.014;2023-05-28T00:07:29;10.70;99.90
46508;DHT22;32223;53.654;10.014;2023-05-28T00:09:56;10.60;99.90
46508;DHT22;32223;53.654;10.014;2023-05-28T00:12:22;10.60;99.90
46508;DHT22;32223;53.654;10.014;2023-05-28T00:14:47;10.50;99.90
46508;DHT22;32223;53.654;10.014;2023-05-28T00:17:14;10.50;99.90
46508;DHT22;32223;53.654;10.014;2023-05-28T00:19:41;10.50;99.90
46508;DHT22;32223;53.654;10.014;2023-05-28T00:22:07;10.50;99.90
46508;DHT22;32223;53.654;10.014;2023-05-28T00:24:33;10.50;99.90
46508;DHT22;32223;53.654;10.014;2023-05-28T00:26:58;10.40;99.90
46508;DHT22;32223;53.654;10.014;2023-05-28T00:29:24;10.40;99.90
46508;DHT22;32223;53.654;10.014;2023-05-28T00:31:55;10.40;99.90
46508;DHT22;32223;53.654;10.014;2023-05-28T00:34:21;10.30;99.90
46508;DHT22;32223;53.654;10.014;2023-05-28T00:36:47;10.30;99.90
46508;DHT22;32223;53.654;10.014;2023-05-28T00:39:15;10.20;99.90
46508;DHT22;32223;53.654;10.014;2023-05-28T00:41:40;10.20;99.90
46508;DHT22;32223;53.654;10.014;2023-05-28T00:44:06;10.20;99.90
46508;DHT22;32223;53.654;10.014;2023-05-28T00:46:34;10.20;99.90
46508;DHT22;32223;53.654;10.014;2023-05-28T00:49:01;10.20;99.90
46508;DHT22;32223;53.654;10.014;2023-05-28T00:51:27;10.20;99.90
46508;DHT22;32223;53.654;10.014;2023-05-28T00:53:53;10.10;99.90
46508;DHT22;32223;53.654;10.014;2023-05-28T00:56:19;10.10;99.90
46508;DHT22;32223;53.654;10.014;2023-05-28T00:58:48;10.10;99.90
46508;DHT22;32223;53.654;10.014;2023-05-28T01:01:14;10.00;99.90
46508;DHT22;32223;53.654;10.014;2023-05-28T01:03:40;10.00;99.90
46508;DHT22;32223;53.654;10.014;2023-05-28T01:06:13;10.00;99.90
46508;DHT22;32223;53.654;10.014;2023-05-28T01:08:40;9.90;99.90
46508;DHT22;32223;53.654;10.014;2023-05-28T01:11:12;9.90;99.90
46508;DHT22;32223;53.654;10.014;2023-05-28T01:13:39;9.80;99.90
46508;DHT22;32223;53.654;10.014;2023-05-28T01:16:06;9.70;99.90
46508;DHT22;32223;53.654;10.014;2023-05-28T01:18:32;9.80;99.90
46508;DHT22;32223;53.654;10.014;2023-05-28T01:21:01;9.80;99.90
46508;DHT22;32223;53.654;10.014;2023-05-28T01:23:29;9.80;99.90
46508;DHT22;32223;53.654;10.014;2023-05-28T01:25:58;9.70;99.90
46508;DHT22;32223;53.654;10.014;2023-05-28T01:28:24;9.70;99.90
46508;DHT22;32223;53.654;10.014;2023-05-28T01:30:50;9.70;99.90
46508;DHT22;32223;53.654;10.014;2023-05-28T01:33:18;9.70;99.90
46508;DHT22;32223;53.654;10.014;2023-05-28T01:35:44;9.70;99.90
46508;DHT22;32223;53.654;10.014;2023-05-28T01:38:11;9.60;99.90
46508;DHT22;32223;53.654;10.014;2023-05-28T01:40:40;9.60;99.90
46508;DHT22;32223;53.654;10.014;2023-05-28T01:43:06;9.60;99.90
46508;DHT22;32223;53.654;10.014;2023-05-28T01:45:32;9.50;99.90
46508;DHT22;32223;53.654;10.014;2023-05-28T01:47:59;9.50;99.90
46508;DHT22;32223;53.654;10.014;2023-05-28T01:50:24;9.50;99.90
46508;DHT22;32223;53.654;10.014;2023-05-28T01:52:51;9.50;99.90
46508;DHT22;32223;53.654;10.014;2023-05-28T01:55:16;9.40;99.90
46508;DHT22;32223;53.654;10.014;2023-05-28T01:57:43;9.40;99.90
46508;DHT22;32223;53.654;10.014;2023-05-28T02:00:09;9.40;99.90
46508;DHT22;32223;53.654;10.014;2023-05-28T02:02:37;9.40;99.90
46508;DHT22;32223;53.654;10.014;2023-05-28T02:05:03;9.40;99.90
46508;DHT22;32223;53.654;10.014;2023-05-28T02:07:29;9.30;99.90
46508;DHT22;32223;53.654;10.014;2023-05-28T02:09:55;9.30;99.90
46508;DHT22;32223;53.654;10.014;2023-05-28T02:12:21;9.30;99.90
46508;DHT22;32223;53.654;10.014;2023-05-28T02:14:46;9.20;99.90
46508;DHT22;32223;53.654;10.014;2023-05-28T02:17:12;9.20;99.90
46508;DHT22;32223;53.654;10.014;2023-05-28T02:19:38;9.20;99.90
46508;DHT22;32223;53.654;10.014;2023-05-28T02:22:04;9.20;99.90
46508;DHT22;32223;53.654;10.014;2023-05-28T02:24:36;9.10;99.90
46508;DHT22;32223;53.654;10.014;2023-05-28T02:27:01;9.10;99.90
46508;DHT22;32223;53.654;10.014;2023-05-28T02:29:29;9.00;99.90
46508;DHT22;32223;53.654;10.014;2023-05-28T02:31:54;9.10;99.90
46508;DHT22;32223;53.654;10.014;2023-05-28T02:34:20;9.00;99.90
46508;DHT22;32223;53.654;10.014;2023-05-28T02:36:46;9.10;99.90
46508;DHT22;32223;53.654;10.014;2023-05-28T02:39:11;9.00;99.90
46508;DHT22;32223;53.654;10.014;2023-05-28T02:41:37;9.00;99.90
46508;DHT22;32223;53.654;10.014;2023-05-28T02:44:03;8.90;99.90
46508;DHT22;32223;53.654;10.014;2023-05-28T02:46:29;8.90;99.90
46508;DHT22;32223;53.654;10.014;2023-05-28T02:48:54;8.90;99.90
46508;DHT22;32223;53.654;10.014;2023-05-28T02:51:20;8.90;99.90
46508;DHT22;32223;53.654;10.014;2023-05-28T02:53:45;8.90;99.90
46508;DHT22;32223;53.654;10.014;2023-05-28T02:56:11;8.80;99.90
46508;DHT22;32223;53.654;10.014;2023-05-28T02:58:37;8.80;99.90
46508;DHT22;32223;53.654;10.014;2023-05-28T03:01:03;8.80;99.90
46508;DHT22;32223;53.654;10.014;2023-05-28T03:03:29;8.70;99.90
46508;DHT22;32223;53.654;10.014;2023-05-28T03:05:54;8.70;99.90
46508;DHT22;32223;53.654;10.014;2023-05-28T03:08:20;8.70;99.90
46508;DHT22;32223;53.654;10.014;2023-05-28T03:10:46;8.70;99.90
46508;DHT22;32223;53.654;10.014;2023-05-28T03:13:12;8.80;99.90
46508;DHT22;32223;53.654;10.014;2023-05-28T03:15:37;8.70;99.90
46508;DHT22;32223;53.654;10.014;2023-05-28T03:18:03;8.70;99.90
46508;DHT22;32223;53.654;10.014;2023-05-28T03:20:31;8.70;99.90
46508;DHT22;32223;53.654;10.014;2023-05-28T03:22:58;8.70;99.90
46508;DHT22;32223;53.654;10.014;2023-05-28T03:25:24;8.70;99.90
46508;DHT22;32223;53.654;10.014;2023-05-28T03:27:54;8.70;99.90
46508;DHT22;32223;53.654;10.014;2023-05-28T03:30:19;8.70;99.90
46508;DHT22;32223;53.654;10.014;2023-05-28T03:32:47;8.70;99.90
46508;DHT22;32223;53.654;10.014;2023-05-28T03:35:13;8.70;99.90
46508;DHT22;32223;53.654;10.014;2023-05-28T03:37:38;8.80;99.90
46508;DHT22;32223;53.654;10.014;2023-05-28T03:40:04;8.70;99.90
46508;DHT22;32223;53.654;10.014;2023-05-28T03:42:30;8.80;99.90
46508;DHT22;32223;53.654;10.014;2023-05-28T03:44:56;8.80;99.90
46508;DHT22;32223;53.654;10.014;2023-05-28T03:47:21;8.80;99.90
46508;DHT22;32223;53.654;10.014;2023-05-28T03:49:47;8.80;99.90
46508;DHT22;32223;53.654;10.014;2023-05-28T03:52:13;8.80;99.90
46508;DHT22;32223;53.654;10.014;2023-05-28T03:54:38;8.80;99.90
46508;DHT22;32223;53.654;10.014;2023-05-28T03:57:04;8.80;99.90
46508;DHT22;32223;53.654;10.014;2023-05-28T03:59:31;8.90;99.90
46508;DHT22;32223;53.654;10.014;2023-05-28T04:01:56;8.90;99.90
46508;DHT22;32223;53.654;10.014;2023-05-28T04:04:22;8.90;99.90
46508;DHT22;32223;53.654;10.014;2023-05-28T04:06:47;8.90;99.90
46508;DHT22;32223;53.654;10.014;2023-05-28T04:09:13;9.00;99.90
46508;DHT22;32223;53.654;10.014;2023-05-28T04:11:38;9.00;99.90
46508;DHT22;32223;53.654;10.014;2023-05-28T04:14:04;9.00;99.90
46508;DHT22;32223;53.654;10.014;2023-05-28T04:16:30;9.00;99.90
46508;DHT22;32223;53.654;10.014;2023-05-28T04:18:56;9.10;99.90
46508;DHT22;32223;53.654;10.014;2023-05-28T04:21:23;9.10;99.90
46508;DHT22;32223;53.654;10.014;2023-05-28T04:23:48;9.20;99.90
46508;DHT22;32223;53.654;10.014;2023-05-28T04:26:14;9.30;99.90
46508;DHT22;32223;53.654;10.014;2023-05-28T04:28:41;9.30;99.90
46508;DHT22;32223;53.654;10.014;2023-05-28T04:31:07;9.40;99.90
46508;DHT22;32223;53.654;10.014;2023-05-28T04:33:33;9.50;99.90
46508;DHT22;32223;53.654;10.014;2023-05-28T04:35:59;9.50;99.90
46508;DHT22;32223;53.654;10.014;2023-05-28T04:38:27;9.60;99.90
46508;DHT22;32223;53.654;10.014;2023-05-28T04:40:54;9.70;99.90
46508;DHT22;32223;53.654;10.014;2023-05-28T04:43:20;9.70;99.90
46508;DHT22;32223;53.654;10.014;2023-05-28T04:45:49;9.80;99.90
46508;DHT22;32223;53.654;10.014;2023-05-28T04:48:15;9.90;99.90
46508;DHT22;32223;53.654;10.014;2023-05-28T04:50:41;10.00;99.90
46508;DHT22;32223;53.654;10.014;2023-05-28T04:53:07;10.10;99.90
46508;DHT22;32223;53.654;10.014;2023-05-28T04:55:32;10.20;99.90
46508;DHT22;32223;53.654;10.014;2023-05-28T04:57:58;10.30;99.90
46508;DHT22;32223;53.654;10.014;2023-05-28T05:00:24;10.40;99.90
46508;DHT22;32223;53.654;10.014;2023-05-28T05:02:52;10.50;99.90
46508;DHT22;32223;53.654;10.014;2023-05-28T05:05:18;10.60;99.90
46508;DHT22;32223;53.654;10.014;2023-05-28T05:07:45;10.80;99.90
46508;DHT22;32223;53.654;10.014;2023-05-28T05:10:11;10.90;99.90
46508;DHT22;32223;53.654;10.014;2023-05-28T05:12:37;11.10;99.90
46508;DHT22;32223;53.654;10.014;2023-05-28T05:15:04;11.20;99.90
46508;DHT22;32223;53.654;10.014;2023-05-28T05:17:31;11.40;99.90
46508;DHT22;32223;53.654;10.014;2023-05-28T05:19:57;11.60;99.90
46508;DHT22;32223;53.654;10.014;2023-05-28T05:22:23;11.80;99.90
46508;DHT22;32223;53.654;10.014;2023-05-28T05:24:49;11.90;99.90
46508;DHT22;32223;53.654;10.014;2023-05-28T05:27:15;12.00;99.90
46508;DHT22;32223;53.654;10.014;2023-05-28T05:29:40;12.10;99.90
46508;DHT22;32223;53.654;10.014;2023-05-28T05:32:06;12.20;99.90
46508;DHT22;32223;53.654;10.014;2023-05-28T05:34:32;12.30;99.90
46508;DHT22;32223;53.654;10.014;2023-05-28T05:36:58;12.30;99.90
46508;DHT22;32223;53.654;10.014;2023-05-28T05:39:24;12.20;99.90
46508;DHT22;32223;53.654;10.014;2023-05-28T05:41:50;12.20;99.90
46508;DHT22;32223;53.654;10.014;2023-05-28T05:44:16;12.20;99.90
46508;DHT22;32223;53.654;10.014;2023-05-28T05:46:41;12.20;99.90
46508;DHT22;32223;53.654;10.014;2023-05-28T05:49:08;12.30;99.90
46508;DHT22;32223;53.654;10.014;2023-05-28T05:51:34;12.50;99.90
46508;DHT22;32223;53.654;10.014;2023-05-28T05:53:59;12.60;99.90
46508;DHT22;32223;53.654;10.014;2023-05-28T05:56:25;12.70;99.90
46508;DHT22;32223;53.654;10.014;2023-05-28T05:58:51;12.80;99.90
46508;DHT22;32223;53.654;10.014;2023-05-28T06:01:17;13.00;99.90
46508;DHT22;32223;53.654;10.014;2023-05-28T06:03:43;13.20;99.90
46508;DHT22;32223;53.654;10.014;2023-05-28T06:06:09;13.40;99.90
46508;DHT22;32223;53.654;10.014;2023-05-28T06:08:35;13.60;99.90
46508;DHT22;32223;53.654;10.014;2023-05-28T06:11:01;13.80;99.90
46508;DHT22;32223;53.654;10.014;2023-05-28T06:13:27;14.00;99.90
46508;DHT22;32223;53.654;10.014;2023-05-28T06:15:53;14.10;99.90
46508;DHT22;32223;53.654;10.014;2023-05-28T06:18:19;14.20;99.90
46508;DHT22;32223;53.654;10.014;2023-05-28T06:20:46;14.20;99.90
46508;DHT22;32223;53.654;10.014;2023-05-28T06:23:15;14.20;99.90
46508;DHT22;32223;53.654;10.014;2023-05-28T06:25:40;14.20;99.90
46508;DHT22;32223;53.654;10.014;2023-05-28T06:28:07;14.30;99.90
46508;DHT22;32223;53.654;10.014;2023-05-28T06:30:32;14.30;99.90
46508;DHT22;32223;53.654;10.014;2023-05-28T06:32:58;14.40;99.90
46508;DHT22;32223;53.654;10.014;2023-05-28T06:35:24;14.50;99.90
46508;DHT22;32223;53.654;10.014;2023-05-28T06:37:49;14.60;99.90
46508;DHT22;32223;53.654;10.014;2023-05-28T06:40:15;14.80;99.90
46508;DHT22;32223;53.654;10.014;2023-05-28T06:42:41;15.00;99.90
46508;DHT22;32223;53.654;10.014;2023-05-28T06:45:07;15.10;99.90
46508;DHT22;32223;53.654;10.014;2023-05-28T06:47:33;15.30;99.90
46508;DHT22;32223;53.654;10.014;2023-05-28T06:49:58;15.50;99.90
46508;DHT22;32223;53.654;10.014;2023-05-28T06:52:27;15.60;99.90
46508;DHT22;32223;53.654;10.014;2023-05-28T06:54:53;15.70;99.90
46508;DHT22;32223;53.654;10.014;2023-05-28T06:57:20;15.80;99.90
46508;DHT22;32223;53.654;10.014;2023-05-28T06:59:45;15.90;99.90
46508;DHT22;32223;53.654;10.014;2023-05-28T07:02:11;15.90;99.90
46508;DHT22;32223;53.654;10.014;2023-05-28T07:04:37;16.00;99.90
46508;DHT22;32223;53.654;10.014;2023-05-28T07:07:03;16.00;99.90
46508;DHT22;32223;53.654;10.014;2023-05-28T07:09:29;16.00;99.90
46508;DHT22;32223;53.654;10.014;2023-05-28T07:11:55;16.00;99.90
46508;DHT22;32223;53.654;10.014;2023-05-28T07:14:21;15.90;99.90
46508;DHT22;32223;53.654;10.014;2023-05-28T07:16:47;15.80;99.90
46508;DHT22;32223;53.654;10.014;2023-05-28T07:19:13;15.80;99.90
46508;DHT22;32223;53.654;10.014;2023-05-28T07:21:38;15.80;99.90
46508;DHT22;32223;53.654;10.014;2023-05-28T07:24:04;15.80;99.90
46508;DHT22;32223;53.654;10.014;2023-05-28T07:26:31;15.80;99.90
46508;DHT22;32223;53.654;10.014;2023-05-28T07:28:56;15.80;99.90
46508;DHT22;32223;53.654;10.014;2023-05-28T07:31:22;15.80;99.90
46508;DHT22;32223;53.654;10.014;2023-05-28T07:33:49;15.80;99.90
46508;DHT22;32223;53.654;10.014;2023-05-28T07:36:15;15.80;99.90
46508;DHT22;32223;53.654;10.014;2023-05-28T07:38:44;16.00;99.90
46508;DHT22;32223;53.654;10.014;2023-05-28T07:41:10;16.10;99.90
46508;DHT22;32223;53.654;10.014;2023-05-28T07:43:35;16.20;99.90
46508;DHT22;32223;53.654;10.014;2023-05-28T07:46:01;16.20;99.90
46508;DHT22;32223;53.654;10.014;2023-05-28T07:48:26;16.20;99.90
46508;DHT22;32223;53.654;10.014;2023-05-28T07:50:52;16.20;99.90
46508;DHT22;32223;53.654;10.014;2023-05-28T07:53:18;16.20;99.90
46508;DHT22;32223;53.654;10.014;2023-05-28T07:55:44;16.30;99.90
46508;DHT22;32223;53.654;10.014;2023-05-28T07:58:11;16.40;99.90
46508;DHT22;32223;53.654;10.014;2023-05-28T08:00:38;16.50;99.90
46508;DHT22;32223;53.654;10.014;2023-05-28T08:03:05;16.70;99.90
46508;DHT22;32223;53.654;10.014;2023-05-28T08:05:30;16.90;99.90
46508;DHT22;32223;53.654;10.014;2023-05-28T08:07:56;17.10;99.90
46508;DHT22;32223;53.654;10.014;2023-05-28T08:10:21;17.20;99.90
46508;DHT22;32223;53.654;10.014;2023-05-28T08:12:47;17.30;99.90
46508;DHT22;32223;53.654;10.014;2023-05-28T08:15:13;17.50;99.90
46508;DHT22;32223;53.654;10.014;2023-05-28T08:17:38;17.60;99.90
46508;DHT22;32223;53.654;10.014;2023-05-28T08:20:05;17.60;99.90
46508;DHT22;32223;53.654;10.014;2023-05-28T08:22:31;17.60;99.90
46508;DHT22;32223;53.654;10.014;2023-05-28T08:24:57;17.80;99.90
46508;DHT22;32223;53.654;10.014;2023-05-28T08:27:22;17.90;99.90
46508;DHT22;32223;53.654;10.014;2023-05-28T08:29:48;18.10;99.90
46508;DHT22;32223;53.654;10.014;2023-05-28T08:32:13;18.30;99.90
46508;DHT22;32223;53.654;10.014;2023-05-28T08:34:39;18.30;99.90
46508;DHT22;32223;53.654;10.014;2023-05-28T08:37:05;18.40;99.90
46508;DHT22;32223;53.654;10.014;2023-05-28T08:39:32;18.40;99.90
46508;DHT22;32223;53.654;10.014;2023-05-28T08:41:57;18.50;99.90
46508;DHT22;32223;53.654;10.014;2023-05-28T08:44:23;18.50;99.90
46508;DHT22;32223;53.654;10.014;2023-05-28T08:46:49;18.60;99.90
46508;DHT22;32223;53.654;10.014;2023-05-28T08:49:17;18.70;99.90
46508;DHT22;32223;53.654;10.014;2023-05-28T08:51:44;18.80;99.90
46508;DHT22;32223;53.654;10.014;2023-05-28T08:54:14;18.90;99.90
46508;DHT22;32223;53.654;10.014;2023-05-28T08:56:40;19.00;99.90
46508;DHT22;32223;53.654;10.014;2023-05-28T08:59:07;19.20;99.90
46508;DHT22;32223;53.654;10.014;2023-05-28T09:01:35;19.30;99.90
46508;DHT22;32223;53.654;10.014;2023-05-28T09:04:01;19.20;99.90
46508;DHT22;32223;53.654;10.014;2023-05-28T09:06:30;19.40;99.90
46508;DHT22;32223;53.654;10.014;2023-05-28T09:08:57;19.50;99.90
46508;DHT22;32223;53.654;10.014;2023-05-28T09:11:23;19.50;99.90
46508;DHT22;32223;53.654;10.014;2023-05-28T09:13:49;19.60;99.90
46508;DHT22;32223;53.654;10.014;2023-05-28T09:16:24;19.70;99.90
46508;DHT22;32223;53.654;10.014;2023-05-28T09:18:51;19.70;99.90
46508;DHT22;32223;53.654;10.014;2023-05-28T09:21:19;19.90;99.90
46508;DHT22;32223;53.654;10.014;2023-05-28T09:23:45;20.20;99.90
46508;DHT22;32223;53.654;10.014;2023-05-28T09:26:11;20.30;99.90
46508;DHT22;32223;53.654;10.014;2023-05-28T09:28:41;20.30;99.90
46508;DHT22;32223;53.654;10.014;2023-05-28T09:31:08;20.40;99.90
46508;DHT22;32223;53.654;10.014;2023-05-28T09:33:34;20.30;99.90
46508;DHT22;32223;53.654;10.014;2023-05-28T09:36:01;20.50;99.90
46508;DHT22;32223;53.654;10.014;2023-05-28T09:38:40;20.50;99.90
46508;DHT22;32223;53.654;10.014;2023-05-28T09:41:20;20.60;99.90
46508;DHT22;32223;53.654;10.014;2023-05-28T09:43:47;20.50;99.90
46508;DHT22;32223;53.654;10.014;2023-05-28T09:46:20;20.50;99.90
46508;DHT22;32223;53.654;10.014;2023-05-28T09:48:45;20.60;99.90
46508;DHT22;32223;53.654;10.014;2023-05-28T09:51:12;20.80;99.90
46508;DHT22;32223;53.654;10.014;2023-05-28T09:53:43;21.10;99.90
46508;DHT22;32223;53.654;10.014;2023-05-28T09:56:09;21.30;99.90
46508;DHT22;32223;53.654;10.014;2023-05-28T09:58:37;21.40;99.90
46508;DHT22;32223;53.654;10.014;2023-05-28T10:01:13;21.20;99.90
46508;DHT22;32223;53.654;10.014;2023-05-28T10:03:43;21.10;99.90
46508;DHT22;32223;53.654;10.014;2023-05-28T10:06:11;20.80;99.90
46508;DHT22;32223;53.654;10.014;2023-05-28T10:08:40;20.90;99.90
46508;DHT22;32223;53.654;10.014;2023-05-28T10:11:13;21.20;99.90
46508;DHT22;32223;53.654;10.014;2023-05-28T10:13:40;21.50;99.90
46508;DHT22;32223;53.654;10.014;2023-05-28T10:16:07;21.80;99.90
46508;DHT22;32223;53.654;10.014;2023-05-28T10:18:34;21.80;99.90
46508;DHT22;32223;53.654;10.014;2023-05-28T10:21:00;22.10;99.90
46508;DHT22;32223;53.654;10.014;2023-05-28T10:23:27;22.30;99.90
46508;DHT22;32223;53.654;10.014;2023-05-28T10:25:54;22.50;99.90
46508;DHT22;32223;53.654;10.014;2023-05-28T10:28:20;22.60;99.90
46508;DHT22;32223;53.654;10.014;2023-05-28T10:31:08;22.40;99.90
46508;DHT22;32223;53.654;10.014;2023-05-28T10:33:40;22.20;99.90
46508;DHT22;32223;53.654;10.014;2023-05-28T10:36:12;21.60;99.90
46508;DHT22;32223;53.654;10.014;2023-05-28T10:38:56;21.30;99.90
46508;DHT22;32223;53.654;10.014;2023-05-28T10:41:22;21.30;99.90
46508;DHT22;32223;53.654;10.014;2023-05-28T10:43:52;21.30;99.90
46508;DHT22;32223;53.654;10.014;2023-05-28T10:49:14;21.40;99.90
46508;DHT22;32223;53.654;10.014;2023-05-28T10:54:39;22.30;99.90
46508;DHT22;32223;53.654;10.014;2023-05-28T10:57:17;22.20;99.90
46508;DHT22;32223;53.654;10.014;2023-05-28T10:59:59;22.00;99.90
46508;DHT22;32223;53.654;10.014;2023-05-28T11:02:35;21.80;99.90
46508;DHT22;32223;53.654;10.014;2023-05-28T11:05:02;21.80;99.90
46508;DHT22;32223;53.654;10.014;2023-05-28T11:07:36;22.10;99.90
46508;DHT22;32223;53.654;10.014;2023-05-28T11:10:07;22.50;99.90
46508;DHT22;32223;53.654;10.014;2023-05-28T11:12:38;22.60;99.90
46508;DHT22;32223;53.654;10.014;2023-05-28T11:15:09;22.50;99.90
46508;DHT22;32223;53.654;10.014;2023-05-28T11:17:45;22.40;99.90
46508;DHT22;32223;53.654;10.014;2023-05-28T11:20:23;22.40;99.90
46508;DHT22;32223;53.654;10.014;2023-05-28T11:22:55;22.10;99.90
46508;DHT22;32223;53.654;10.014;2023-05-28T11:25:21;21.90;99.90
46508;DHT22;32223;53.654;10.014;2023-05-28T11:27:48;21.90;99.90
46508;DHT22;32223;53.654;10.014;2023-05-28T11:30:15;21.70;99.90
46508;DHT22;32223;53.654;10.014;2023-05-28T11:32:42;21.70;99.90
46508;DHT22;32223;53.654;10.014;2023-05-28T11:35:12;21.40;99.90
46508;DHT22;32223;53.654;10.014;2023-05-28T11:37:39;21.50;99.90
46508;DHT22;32223;53.654;10.014;2023-05-28T11:40:07;21.30;99.90
46508;DHT22;32223;53.654;10.014;2023-05-28T11:42:40;21.40;99.90
46508;DHT22;32223;53.654;10.014;2023-05-28T11:45:07;21.40;99.90
46508;DHT22;32223;53.654;10.014;2023-05-28T11:47:34;21.40;99.90
46508;DHT22;32223;53.654;10.014;2023-05-28T11:50:07;21.70;99.90
46508;DHT22;32223;53.654;10.014;2023-05-28T11:52:33;22.30;99.90
46508;DHT22;32223;53.654;10.014;2023-05-28T11:55:00;22.50;99.90
46508;DHT22;32223;53.654;10.014;2023-05-28T11:57:27;22.50;99.90
46508;DHT22;32223;53.654;10.014;2023-05-28T12:00:01;22.40;99.90
46508;DHT22;32223;53.654;10.014;2023-05-28T12:02:32;22.40;99.90
46508;DHT22;32223;53.654;10.014;2023-05-28T12:05:00;22.40;99.90
46508;DHT22;32223;53.654;10.014;2023-05-28T12:07:32;22.40;99.90
46508;DHT22;32223;53.654;10.014;2023-05-28T12:10:08;22.20;99.90
46508;DHT22;32223;53.654;10.014;2023-05-28T12:12:45;22.20;99.90
46508;DHT22;32223;53.654;10.014;2023-05-28T12:15:12;22.00;99.90
46508;DHT22;32223;53.654;10.014;2023-05-28T12:17:39;22.10;99.90
46508;DHT22;32223;53.654;10.014;2023-05-28T12:22:38;22.80;99.80
46508;DHT22;32223;53.654;10.014;2023-05-28T12:25:05;22.80;98.90
46508;DHT22;32223;53.654;10.014;2023-05-28T12:27:31;22.70;98.60
46508;DHT22;32223;53.654;10.014;2023-05-28T12:29:57;22.50;97.40
46508;DHT22;32223;53.654;10.014;2023-05-28T12:32:23;22.40;98.30
46508;DHT22;32223;53.654;10.014;2023-05-28T12:34:48;22.50;97.20
46508;DHT22;32223;53.654;10.014;2023-05-28T12:37:16;22.50;97.30
46508;DHT22;32223;53.654;10.014;2023-05-28T12:39:42;22.60;98.10
46508;DHT22;32223;53.654;10.014;2023-05-28T12:42:07;22.90;97.80
46508;DHT22;32223;53.654;10.014;2023-05-28T12:44:33;23.50;96.60
46508;DHT22;32223;53.654;10.014;2023-05-28T12:46:58;24.10;95.10
46508;DHT22;32223;53.654;10.014;2023-05-28T12:49:24;24.40;93.70
46508;DHT22;32223;53.654;10.014;2023-05-28T12:51:50;24.80;94.60
46508;DHT22;32223;53.654;10.014;2023-05-28T12:54:15;24.80;92.20
46508;DHT22;32223;53.654;10.014;2023-05-28T12:56:41;25.20;91.10
46508;DHT22;32223;53.654;10.014;2023-05-28T12:59:09;25.50;89.80
46508;DHT22;32223;53.654;10.014;2023-05-28T13:01:35;25.90;85.70
46508;DHT22;32223;53.654;10.014;2023-05-28T13:04:01;26.50;82.50
46508;DHT22;32223;53.654;10.014;2023-05-28T13:06:27;26.90;82.70
46508;DHT22;32223;53.654;10.014;2023-05-28T13:08:53;27.40;78.80
46508;DHT22;32223;53.654;10.014;2023-05-28T13:11:18;27.90;77.80
46508;DHT22;32223;53.654;10.014;2023-05-28T13:13:44;27.80;74.70
46508;DHT22;32223;53.654;10.014;2023-05-28T13:16:10;27.30;72.50
46508;DHT22;32223;53.654;10.014;2023-05-28T13:18:35;27.30;74.40
46508;DHT22;32223;53.654;10.014;2023-05-28T13:21:01;27.40;72.70
46508;DHT22;32223;53.654;10.014;2023-05-28T13:23:26;27.90;71.20
46508;DHT22;32223;53.654;10.014;2023-05-28T13:25:52;28.90;69.80
46508;DHT22;32223;53.654;10.014;2023-05-28T13:28:18;29.20;70.40
46508;DHT22;32223;53.654;10.014;2023-05-28T13:30:45;29.10;70.20
46508;DHT22;32223;53.654;10.014;2023-05-28T13:33:10;29.20;68.80
46508;DHT22;32223;53.654;10.014;2023-05-28T13:35:36;29.20;65.30
46508;DHT22;32223;53.654;10.014;2023-05-28T13:38:01;29.30;67.10
46508;DHT22;32223;53.654;10.014;2023-05-28T13:40:28;29.70;64.10
46508;DHT22;32223;53.654;10.014;2023-05-28T13:42:55;30.60;63.30
46508;DHT22;32223;53.654;10.014;2023-05-28T13:45:20;30.80;62.90
46508;DHT22;32223;53.654;10.014;2023-05-28T13:47:46;30.40;63.20
46508;DHT22;32223;53.654;10.014;2023-05-28T13:50:12;30.30;61.90
46508;DHT22;32223;53.654;10.014;2023-05-28T13:52:38;30.20;63.70
46508;DHT22;32223;53.654;10.014;2023-05-28T13:55:04;30.20;63.60
46508;DHT22;32223;53.654;10.014;2023-05-28T13:57:31;30.30;62.00
46508;DHT22;32223;53.654;10.014;2023-05-28T13:59:56;29.70;61.80
46508;DHT22;32223;53.654;10.014;2023-05-28T14:02:22;29.50;60.70
46508;DHT22;32223;53.654;10.014;2023-05-28T14:04:47;29.30;62.60
46508;DHT22;32223;53.654;10.014;2023-05-28T14:07:13;29.30;61.80
46508;DHT22;32223;53.654;10.014;2023-05-28T14:09:39;29.40;61.40
46508;DHT22;32223;53.654;10.014;2023-05-28T14:12:04;30.10;63.00
46508;DHT22;32223;53.654;10.014;2023-05-28T14:14:31;30.50;61.30
46508;DHT22;32223;53.654;10.014;2023-05-28T14:16:56;30.80;58.70
46508;DHT22;32223;53.654;10.014;2023-05-28T14:19:22;31.10;58.70
46508;DHT22;32223;53.654;10.014;2023-05-28T14:21:48;30.80;60.00
46508;DHT22;32223;53.654;10.014;2023-05-28T14:24:13;31.30;56.80
46508;DHT22;32223;53.654;10.014;2023-05-28T14:26:39;31.40;57.70
46508;DHT22;32223;53.654;10.014;2023-05-28T14:29:04;31.90;55.10
46508;DHT22;32223;53.654;10.014;2023-05-28T14:31:30;32.30;54.20
46508;DHT22;32223;53.654;10.014;2023-05-28T14:33:56;32.50;53.50
46508;DHT22;32223;53.654;10.014;2023-05-28T14:36:21;33.20;52.10
46508;DHT22;32223;53.654;10.014;2023-05-28T14:38:47;33.50;52.90
46508;DHT22;32223;53.654;10.014;2023-05-28T14:41:12;33.10;51.20
46508;DHT22;32223;53.654;10.014;2023-05-28T14:43:38;33.10;51.30
46508;DHT22;32223;53.654;10.014;2023-05-28T14:46:04;32.60;51.20
46508;DHT22;32223;53.654;10.014;2023-05-28T14:48:30;32.60;50.80
46508;DHT22;32223;53.654;10.014;2023-05-28T14:50:55;33.00;50.40
46508;DHT22;32223;53.654;10.014;2023-05-28T14:53:21;32.60;52.50
46508;DHT22;32223;53.654;10.014;2023-05-28T14:55:47;31.90;52.50
46508;DHT22;32223;53.654;10.014;2023-05-28T14:58:12;31.60;53.10
46508;DHT22;32223;53.654;10.014;2023-05-28T15:00:38;32.30;50.40
46508;DHT22;32223;53.654;10.014;2023-05-28T15:03:03;31.80;50.60
46508;DHT22;32223;53.654;10.014;2023-05-28T15:05:29;31.70;50.00
46508;DHT22;32223;53.654;10.014;2023-05-28T15:07:54;32.30;48.50
46508;DHT22;32223;53.654;10.014;2023-05-28T15:10:20;32.40;47.80
46508;DHT22;32223;53.654;10.014;2023-05-28T15:12:46;32.60;48.50
46508;DHT22;32223;53.654;10.014;2023-05-28T15:15:12;32.00;48.00
46508;DHT22;32223;53.654;10.014;2023-05-28T15:17:37;31.80;49.00
46508;DHT22;32223;53.654;10.014;2023-05-28T15:20:04;31.60;49.30
46508;DHT22;32223;53.654;10.014;2023-05-28T15:22:30;31.30;48.90
46508;DHT22;32223;53.654;10.014;2023-05-28T15:24:55;32.30;47.00